createdAt,value
2018-05-12T00:01:12.951Z,76.92
2018-05-12T00:02:12.899Z,76.44
2018-05-12T00:03:12.764Z,76.54
2018-05-12T00:05:55.009Z,77.11
2018-05-12T00:06:54.928Z,76.35
2018-05-12T00:07:54.759Z,77.40
2018-05-12T00:10:36.950Z,77.50
2018-05-12T00:11:36.892Z,77.50
2018-05-12T00:12:36.787Z,77.50
2018-05-12T00:13:37.717Z,77.69
2018-05-12T00:14:36.623Z,77.69
2018-05-12T00:17:18.448Z,77.69
2018-05-12T00:18:18.382Z,77.40
2018-05-12T00:19:18.267Z,77.97
2018-05-12T00:20:18.305Z,77.50
2018-05-12T00:21:18.130Z,78.07
2018-05-12T00:22:18.036Z,77.69
2018-05-12T00:23:17.951Z,77.97
2018-05-12T00:25:59.959Z,78.93
2018-05-12T00:26:59.861Z,78.45
2018-05-12T00:27:59.786Z,78.45
2018-05-12T00:28:59.725Z,78.42
2018-05-12T00:29:59.604Z,78.51
2018-05-12T00:30:59.581Z,78.51
2018-05-12T00:31:59.450Z,79.28
2018-05-12T00:34:41.427Z,78.70
2018-05-12T00:35:41.440Z,78.89
2018-05-12T00:36:41.296Z,79.28
2018-05-12T00:37:41.255Z,79.66
2018-05-12T00:38:41.119Z,78.70
2018-05-12T00:39:41.070Z,78.89
2018-05-12T00:40:40.977Z,79.37
2018-05-12T00:41:40.910Z,79.37
2018-05-12T00:42:40.824Z,79.75
2018-05-12T00:43:40.771Z,79.75
2018-05-12T00:44:40.633Z,80.33
2018-05-12T00:45:41.225Z,79.57
2018-05-12T00:46:40.487Z,79.95
2018-05-12T00:49:22.425Z,79.85
2018-05-12T00:50:22.364Z,79.85
2018-05-12T00:51:22.301Z,79.75
2018-05-12T00:52:22.299Z,79.75
2018-05-12T00:53:22.132Z,79.66
2018-05-12T00:54:22.037Z,79.37
2018-05-12T00:55:21.978Z,80.04
2018-05-12T00:56:21.882Z,80.14
2018-05-12T00:57:21.823Z,80.04
2018-05-12T00:58:21.749Z,79.95
2018-05-12T00:59:21.646Z,80.24
2018-05-12T01:00:21.638Z,80.52
2018-05-12T01:01:21.482Z,80.14
2018-05-12T01:02:22.460Z,80.90
2018-05-12T01:03:21.331Z,80.62
2018-05-12T01:04:21.252Z,80.81
2018-05-12T01:05:21.175Z,80.43
2018-05-12T01:06:21.211Z,80.48
2018-05-12T01:07:21.008Z,80.67
2018-05-12T01:10:02.940Z,80.62
2018-05-12T01:11:02.881Z,80.14
2018-05-12T01:12:02.789Z,80.14
2018-05-12T01:13:02.740Z,80.24
2018-05-12T01:14:02.621Z,80.29
2018-05-12T01:15:02.553Z,80.10
2018-05-12T01:16:02.453Z,80.77
2018-05-12T01:17:02.383Z,80.67
2018-05-12T01:18:02.322Z,80.77
2018-05-12T01:19:02.221Z,80.96
2018-05-12T01:20:02.141Z,81.25
2018-05-12T01:21:02.078Z,81.34
2018-05-12T01:22:01.986Z,81.82
2018-05-12T01:23:01.981Z,81.63
2018-05-12T01:24:01.827Z,81.63
2018-05-12T01:25:01.802Z,82.01
2018-05-12T01:26:01.682Z,82.11
2018-05-12T01:27:01.589Z,82.20
2018-05-12T01:28:01.529Z,82.40
2018-05-12T01:29:01.525Z,82.49
2018-05-12T01:30:01.350Z,82.49
2018-05-12T01:31:01.277Z,82.64
2018-05-12T01:32:01.195Z,82.54
2018-05-12T01:33:01.147Z,82.35
2018-05-12T01:34:01.037Z,82.78
2018-05-12T01:35:00.967Z,82.93
2018-05-12T01:36:00.873Z,82.93
2018-05-12T01:37:00.802Z,83.03
2018-05-12T01:38:00.743Z,83.16
2018-05-12T01:39:01.671Z,82.45
2018-05-12T01:40:00.560Z,82.35
2018-05-12T01:42:42.431Z,83.22
2018-05-12T01:43:43.406Z,82.54
2018-05-12T01:44:42.272Z,83.03
2018-05-12T01:45:42.206Z,82.54
2018-05-12T01:46:42.158Z,82.59
2018-05-12T01:47:42.233Z,82.35
2018-05-12T01:48:42.243Z,82.40
2018-05-12T01:49:42.110Z,82.78
2018-05-12T01:50:41.820Z,82.54
2018-05-12T01:51:41.733Z,82.26
2018-05-12T01:52:41.639Z,82.74
2018-05-12T01:53:42.770Z,82.20
2018-05-12T01:54:41.510Z,81.92
2018-05-12T01:55:41.411Z,82.20
2018-05-12T01:56:41.343Z,82.11
2018-05-12T01:57:41.266Z,81.92
2018-05-12T01:58:41.192Z,82.30
2018-05-12T01:59:41.133Z,81.82
2018-05-12T02:00:41.016Z,81.63
2018-05-12T02:03:22.956Z,81.63
2018-05-12T02:06:04.971Z,82.54
2018-05-12T02:07:04.879Z,82.45
2018-05-12T02:08:04.785Z,82.17
2018-05-12T02:09:04.706Z,81.88
2018-05-12T02:10:04.643Z,82.26
2018-05-12T02:11:04.565Z,82.64
2018-05-12T02:12:04.467Z,82.54
2018-05-12T02:13:04.400Z,82.54
2018-05-12T02:14:04.309Z,83.22
2018-05-12T02:15:04.266Z,82.93
2018-05-12T02:16:04.192Z,82.35
2018-05-12T02:17:04.083Z,82.35
2018-05-12T02:18:03.995Z,82.93
2018-05-12T02:19:03.923Z,83.03
2018-05-12T02:20:03.899Z,83.03
2018-05-12T02:21:03.774Z,83.12
2018-05-12T02:22:03.672Z,82.64
2018-05-12T02:23:03.617Z,82.93
2018-05-12T02:24:03.520Z,83.12
2018-05-12T02:25:03.467Z,82.93
2018-05-12T02:26:03.386Z,82.83
2018-05-12T02:27:03.309Z,82.64
2018-05-12T02:28:03.211Z,83.03
2018-05-12T02:30:45.698Z,83.69
2018-05-12T02:31:45.509Z,83.31
2018-05-12T02:32:45.509Z,83.40
2018-05-12T02:33:45.224Z,83.60
2018-05-12T02:34:45.131Z,83.31
2018-05-12T02:35:45.058Z,84.27
2018-05-12T02:36:44.997Z,83.89
2018-05-12T02:37:44.916Z,83.98
2018-05-12T02:38:44.826Z,84.17
2018-05-12T02:39:44.741Z,83.89
2018-05-12T02:40:44.656Z,84.08
2018-05-12T02:41:44.630Z,83.98
2018-05-12T02:42:44.500Z,83.98
2018-05-12T02:43:44.429Z,83.98
2018-05-12T02:44:44.334Z,84.08
2018-05-12T02:45:44.269Z,84.55
2018-05-12T02:46:44.212Z,84.65
2018-05-12T02:47:44.116Z,84.75
2018-05-12T02:48:44.021Z,84.55
2018-05-12T02:49:43.962Z,85.13
2018-05-12T02:50:43.873Z,85.32
2018-05-12T02:51:43.816Z,84.94
2018-05-12T02:52:43.722Z,85.03
2018-05-12T02:53:43.644Z,85.51
2018-05-12T02:54:43.573Z,84.52
2018-05-12T02:55:43.486Z,85.28
2018-05-12T02:56:43.415Z,85.38
2018-05-12T02:59:25.475Z,85.75
2018-05-12T03:00:25.401Z,85.75
2018-05-12T03:01:25.294Z,86.14
2018-05-12T03:02:25.244Z,86.14
2018-05-12T03:03:25.154Z,85.75
2018-05-12T03:04:25.109Z,86.14
2018-05-12T03:05:24.983Z,86.04
2018-05-12T03:06:24.936Z,86.04
2018-05-12T03:07:24.845Z,85.94
2018-05-12T03:08:24.899Z,85.94
2018-05-12T03:09:24.665Z,86.43
2018-05-12T03:10:24.590Z,86.61
2018-05-12T03:11:24.509Z,86.52
2018-05-12T03:12:25.467Z,86.61
2018-05-12T03:13:24.383Z,87.09
2018-05-12T03:16:06.456Z,87.00
2018-05-12T03:17:06.408Z,87.62
2018-05-12T03:18:06.302Z,87.09
2018-05-12T03:19:06.247Z,87.29
2018-05-12T03:20:06.142Z,86.52
2018-05-12T03:21:06.087Z,86.33
2018-05-12T03:22:06.008Z,86.43
2018-05-12T03:23:05.910Z,86.04
2018-05-12T03:24:05.817Z,86.33
2018-05-12T03:25:05.775Z,85.66
2018-05-12T03:26:05.668Z,85.66
2018-05-12T03:27:05.602Z,85.66
2018-05-12T03:28:05.536Z,86.04
2018-05-12T03:29:05.442Z,86.14
2018-05-12T03:30:05.344Z,86.14
2018-05-12T03:31:05.284Z,86.04
2018-05-12T03:32:05.199Z,86.14
2018-05-12T03:33:05.136Z,86.23
2018-05-12T03:34:05.033Z,86.14
2018-05-12T03:35:04.970Z,85.94
2018-05-12T03:36:04.877Z,86.04
2018-05-12T03:37:04.797Z,86.14
2018-05-12T03:38:04.748Z,86.14
2018-05-12T03:39:05.656Z,86.52
2018-05-12T03:40:04.560Z,86.33
2018-05-12T03:41:04.486Z,86.80
2018-05-12T03:42:04.399Z,86.61
2018-05-12T03:43:04.319Z,86.52
2018-05-12T03:44:04.256Z,86.90
2018-05-12T03:46:46.463Z,86.52
2018-05-12T03:47:46.392Z,86.52
2018-05-12T03:48:46.332Z,86.52
2018-05-12T03:49:46.239Z,86.33
2018-05-12T03:50:46.150Z,86.14
2018-05-12T03:51:46.078Z,86.04
2018-05-12T03:52:45.993Z,86.71
2018-05-12T03:53:45.924Z,86.80
2018-05-12T03:54:45.850Z,86.52
2018-05-12T03:55:45.767Z,86.80
2018-05-12T03:56:45.668Z,86.61
2018-05-12T03:57:45.604Z,86.61
2018-05-12T03:58:45.507Z,86.52
2018-05-12T03:59:45.471Z,86.71
2018-05-12T04:00:45.350Z,86.33
2018-05-12T04:01:45.287Z,86.28
2018-05-12T04:02:45.206Z,86.18
2018-05-12T04:05:27.491Z,86.71
2018-05-12T04:06:27.397Z,87.09
2018-05-12T04:07:27.311Z,86.66
2018-05-12T04:08:27.234Z,86.14
2018-05-12T04:09:27.156Z,86.71
2018-05-12T04:10:27.103Z,86.37
2018-05-12T04:11:27.009Z,85.80
2018-05-12T04:14:08.994Z,86.37
2018-05-12T04:15:09.912Z,86.47
2018-05-12T04:16:08.844Z,85.99
2018-05-12T04:17:08.735Z,86.47
2018-05-12T04:18:08.651Z,86.18
2018-05-12T04:19:08.581Z,85.99
2018-05-12T04:20:08.508Z,86.28
2018-05-12T04:21:08.511Z,86.37
2018-05-12T04:22:08.360Z,86.08
2018-05-12T04:24:50.473Z,86.76
2018-05-12T04:25:50.400Z,86.66
2018-05-12T04:26:50.339Z,86.47
2018-05-12T04:27:50.241Z,87.23
2018-05-12T04:28:50.149Z,87.14
2018-05-12T04:31:31.980Z,87.09
2018-05-12T04:32:32.926Z,87.00
2018-05-12T04:33:31.820Z,87.81
2018-05-12T04:34:31.747Z,87.14
2018-05-12T04:35:31.665Z,87.23
2018-05-12T04:38:13.497Z,86.94
2018-05-12T04:39:13.401Z,86.57
2018-05-12T04:40:13.321Z,86.94
2018-05-12T04:41:13.250Z,86.76
2018-05-12T04:42:13.182Z,86.57
2018-05-12T04:44:54.973Z,86.76
2018-05-12T04:45:54.908Z,86.66
2018-05-12T04:46:54.839Z,85.99
2018-05-12T04:47:54.759Z,86.18
2018-05-12T04:48:54.667Z,85.99
2018-05-12T04:49:54.587Z,86.08
2018-05-12T04:50:54.506Z,86.47
2018-05-12T04:51:54.479Z,86.57
2018-05-12T04:52:54.367Z,86.37
2018-05-12T04:53:54.279Z,85.80
2018-05-12T04:54:54.200Z,86.66
2018-05-12T04:55:54.111Z,86.08
2018-05-12T04:58:36.009Z,85.89
2018-05-12T04:59:35.906Z,86.57
2018-05-12T05:00:35.821Z,86.18
2018-05-12T05:01:35.759Z,86.28
2018-05-12T05:02:35.669Z,86.70
2018-05-12T05:03:35.622Z,86.85
2018-05-12T05:06:17.495Z,86.76
2018-05-12T05:07:17.419Z,87.04
2018-05-12T05:08:17.397Z,86.94
2018-05-12T05:10:59.487Z,87.14
2018-05-12T05:11:59.421Z,86.94
2018-05-12T05:12:59.330Z,86.85
2018-05-12T05:14:01.561Z,87.14
2018-05-12T05:14:59.176Z,87.04
2018-05-12T05:17:41.006Z,87.18
2018-05-12T05:18:40.944Z,87.04
2018-05-12T05:19:40.841Z,87.18
2018-05-12T05:20:40.896Z,87.18
2018-05-12T05:21:40.679Z,86.80
2018-05-12T05:22:40.677Z,86.80
2018-05-12T05:23:40.535Z,87.18
2018-05-12T05:24:41.459Z,87.56
2018-05-12T05:25:40.356Z,87.47
2018-05-12T05:26:40.391Z,87.18
2018-05-12T05:27:40.203Z,87.37
2018-05-12T05:30:22.534Z,87.08
2018-05-12T05:31:22.419Z,87.27
2018-05-12T05:32:22.354Z,86.90
2018-05-12T05:35:04.524Z,87.08
2018-05-12T05:36:04.606Z,87.18
2018-05-12T05:37:04.335Z,87.18
2018-05-12T05:38:04.258Z,86.80
2018-05-12T05:39:04.204Z,86.61
2018-05-12T05:40:04.141Z,86.22
2018-05-12T05:41:04.024Z,86.61
2018-05-12T05:43:45.996Z,86.80
2018-05-12T05:44:45.984Z,86.80
2018-05-12T05:45:45.848Z,86.51
2018-05-12T05:46:45.857Z,87.32
2018-05-12T05:47:45.682Z,86.74
2018-05-12T05:50:27.528Z,86.08
2018-05-12T05:51:27.462Z,86.46
2018-05-12T05:52:27.364Z,86.17
2018-05-12T05:53:27.365Z,86.27
2018-05-12T05:54:27.212Z,86.27
2018-05-12T05:55:28.223Z,85.88
2018-05-12T05:56:27.041Z,86.17
2018-05-12T05:57:26.993Z,85.88
2018-05-12T05:58:26.924Z,85.88
2018-05-12T06:01:09.080Z,85.64
2018-05-12T06:02:08.992Z,85.74
2018-05-12T06:03:08.856Z,85.06
2018-05-12T06:04:08.843Z,84.30
2018-05-12T06:05:08.699Z,85.25
2018-05-12T06:06:09.675Z,84.53
2018-05-12T06:07:09.213Z,84.05
2018-05-12T06:08:08.525Z,83.67
2018-05-12T06:09:08.413Z,81.74
2018-05-12T06:10:09.409Z,79.47
2018-05-12T06:11:08.212Z,77.69
2018-05-12T06:12:08.246Z,76.96
2018-05-12T06:13:08.057Z,73.73
2018-05-12T06:15:50.025Z,68.00
2018-05-12T06:16:50.068Z,68.06
2018-05-12T06:17:49.855Z,67.23
2018-05-12T06:18:49.880Z,67.90
2018-05-12T06:19:49.692Z,67.10
2018-05-12T06:20:49.695Z,66.46
2018-05-12T06:21:49.534Z,66.81
2018-05-12T06:22:49.574Z,66.17
2018-05-12T06:23:49.378Z,65.14
2018-05-12T06:24:49.385Z,64.08
2018-05-12T06:25:49.252Z,64.95
2018-05-12T06:26:49.222Z,64.76
2018-05-12T06:27:49.137Z,63.63
2018-05-12T06:28:49.091Z,63.34
2018-05-12T06:29:48.914Z,62.96
2018-05-12T06:30:48.919Z,62.48
2018-05-12T06:31:48.794Z,62.60
2018-05-12T06:32:48.816Z,60.41
2018-05-12T06:33:48.616Z,63.18
2018-05-12T06:34:48.629Z,66.04
2018-05-12T06:35:48.468Z,67.00
2018-05-12T06:36:48.467Z,66.75
2018-05-12T06:37:48.325Z,64.63
2018-05-12T06:40:30.547Z,62.57
2018-05-12T06:41:30.568Z,63.60
2018-05-12T06:42:30.397Z,63.41
2018-05-12T06:43:30.360Z,61.77
2018-05-12T06:44:30.203Z,64.34
2018-05-12T06:45:30.169Z,66.24
2018-05-12T06:46:30.083Z,65.14
2018-05-12T06:47:30.128Z,62.57
2018-05-12T06:48:29.929Z,61.86
2018-05-12T06:51:12.011Z,62.66
2018-05-12T06:52:13.051Z,62.89
2018-05-12T06:53:11.867Z,62.57
2018-05-12T06:54:11.887Z,63.15
2018-05-12T06:55:11.733Z,63.31
2018-05-12T06:56:11.706Z,64.08
2018-05-12T06:57:11.600Z,64.05
2018-05-12T06:58:11.614Z,65.59
2018-05-12T06:59:11.417Z,64.18
2018-05-12T07:00:11.427Z,63.15
2018-05-12T07:01:11.301Z,62.48
2018-05-12T07:02:11.268Z,62.41
2018-05-12T07:03:11.136Z,61.80
2018-05-12T07:04:11.149Z,64.05
2018-05-12T07:05:10.981Z,66.58
2018-05-12T07:06:10.945Z,65.53
2018-05-12T07:07:10.874Z,62.99
2018-05-12T07:08:10.864Z,61.47
2018-05-12T07:09:10.692Z,60.13
2018-05-12T07:10:10.676Z,60.44
2018-05-12T07:11:10.537Z,59.41
2018-05-12T07:12:10.541Z,58.12
2018-05-12T07:13:10.386Z,57.74
2018-05-12T07:14:10.435Z,60.13
2018-05-12T07:15:10.247Z,59.86
2018-05-12T07:16:10.514Z,58.73
2018-05-12T07:17:10.105Z,57.34
2018-05-12T07:18:10.655Z,56.60
2018-05-12T07:19:09.973Z,55.89
2018-05-12T07:21:52.027Z,57.87
2018-05-12T07:22:52.054Z,57.60
2018-05-12T07:23:51.889Z,56.45
2018-05-12T07:24:51.927Z,56.57
2018-05-12T07:25:51.738Z,55.99
2018-05-12T07:26:51.734Z,57.21
2018-05-12T07:27:51.629Z,56.80
2018-05-12T07:28:51.786Z,57.21
2018-05-12T07:29:51.453Z,56.83
2018-05-12T07:30:51.458Z,56.57
2018-05-12T07:31:51.298Z,56.11
2018-05-12T07:34:33.556Z,54.59
2018-05-12T07:35:33.572Z,54.71
2018-05-12T07:36:33.416Z,54.88
2018-05-12T07:37:33.378Z,53.55
2018-05-12T07:38:33.253Z,54.88
2018-05-12T07:39:33.324Z,54.33
2018-05-12T07:40:33.115Z,55.21
2018-05-12T07:41:33.108Z,55.36
2018-05-12T07:42:32.955Z,53.77
2018-05-12T07:43:32.959Z,52.64
2018-05-12T07:44:32.897Z,51.67
2018-05-12T07:45:32.830Z,52.51
2018-05-12T07:46:32.686Z,51.59
2018-05-12T07:47:32.645Z,50.48
2018-05-12T07:48:32.538Z,49.41
2018-05-12T07:49:32.584Z,49.85
2018-05-12T07:50:32.384Z,52.12
2018-05-12T07:51:32.381Z,53.23
2018-05-12T07:52:32.301Z,54.21
2018-05-12T07:55:14.541Z,51.96
2018-05-12T07:56:14.578Z,50.65
2018-05-12T07:57:14.409Z,53.55
2018-05-12T07:58:14.368Z,54.08
2018-05-12T07:59:14.295Z,53.97
2018-05-12T08:00:14.324Z,52.78
2018-05-12T08:01:14.126Z,53.09
2018-05-12T08:02:14.096Z,53.41
2018-05-12T08:03:14.027Z,55.05
2018-05-12T08:04:14.249Z,56.54
2018-05-12T08:05:13.867Z,56.28
2018-05-12T08:06:13.771Z,54.84
2018-05-12T08:07:13.717Z,51.01
2018-05-12T08:09:55.595Z,47.61
2018-05-12T08:10:55.527Z,47.25
2018-05-12T08:11:55.432Z,47.30
2018-05-12T08:14:37.579Z,52.08
2018-05-12T08:15:37.572Z,54.30
2018-05-12T08:16:37.435Z,51.76
2018-05-12T08:19:19.574Z,47.03
2018-05-12T08:22:01.601Z,46.96
2018-05-12T08:23:01.530Z,46.42
2018-05-12T08:24:01.447Z,48.44
2018-05-12T08:25:01.443Z,49.51
2018-05-12T08:26:01.398Z,49.75
2018-05-12T08:27:01.310Z,48.42
2018-05-12T08:28:01.173Z,47.74
2018-05-12T08:29:01.188Z,47.72
2018-05-12T08:30:01.010Z,48.90
2018-05-12T08:31:01.070Z,48.44
2018-05-12T08:32:00.930Z,47.52
2018-05-12T08:33:00.888Z,48.42
2018-05-12T08:34:00.751Z,47.76
2018-05-12T08:35:00.730Z,47.57
2018-05-12T08:36:00.613Z,47.57
2018-05-12T08:37:00.662Z,46.98
2018-05-12T08:38:00.478Z,47.62
2018-05-12T08:39:00.533Z,47.33
2018-05-12T08:40:00.355Z,47.47
2018-05-12T08:41:00.359Z,46.35
2018-05-12T08:42:00.296Z,45.31
2018-05-12T08:43:00.318Z,45.01
2018-05-12T08:44:00.059Z,44.71
2018-05-12T08:45:00.035Z,48.30
2018-05-12T08:45:59.932Z,48.03
2018-05-12T08:46:59.958Z,46.77
2018-05-12T08:47:59.801Z,44.73
2018-05-12T08:48:59.740Z,44.92
2018-05-12T08:49:59.651Z,45.17
2018-05-12T08:50:59.671Z,43.16
2018-05-12T08:51:59.519Z,42.71
2018-05-12T08:53:00.559Z,44.61
2018-05-12T08:53:59.370Z,43.61
2018-05-12T08:54:59.415Z,42.18
2018-05-12T08:55:59.234Z,41.71
2018-05-12T08:58:41.199Z,39.65
2018-05-12T08:59:41.102Z,39.84
2018-05-12T09:00:40.939Z,40.50
2018-05-12T09:01:40.915Z,39.34
2018-05-12T09:02:40.812Z,38.23
2018-05-12T09:03:40.861Z,36.60
2018-05-12T09:04:40.673Z,37.10
2018-05-12T09:05:40.738Z,37.08
2018-05-12T09:06:40.524Z,36.60
2018-05-12T09:07:40.540Z,36.91
2018-05-12T09:08:40.432Z,37.02
2018-05-12T09:09:40.442Z,36.77
2018-05-12T09:10:40.289Z,35.89
2018-05-12T09:11:40.258Z,35.55
2018-05-12T09:12:40.120Z,35.49
2018-05-12T09:13:40.195Z,35.85
2018-05-12T09:14:39.995Z,36.90
2018-05-12T09:15:40.087Z,37.13
2018-05-12T09:16:39.858Z,36.29
2018-05-12T09:17:39.883Z,35.24
2018-05-12T09:18:39.749Z,34.01
2018-05-12T09:19:39.685Z,34.14
2018-05-12T09:20:39.597Z,34.43
2018-05-12T09:21:39.611Z,33.77
2018-05-12T09:22:39.450Z,33.11
2018-05-12T09:23:39.444Z,33.12
2018-05-12T09:24:39.322Z,33.62
2018-05-12T09:25:39.417Z,33.92
2018-05-12T09:26:39.184Z,34.21
2018-05-12T09:27:39.230Z,33.72
2018-05-12T09:28:39.092Z,33.80
2018-05-12T09:29:39.034Z,34.86
2018-05-12T09:30:38.936Z,33.58
2018-05-12T09:31:38.957Z,34.33
2018-05-12T09:32:38.789Z,34.08
2018-05-12T09:33:38.802Z,34.09
2018-05-12T09:34:38.703Z,33.82
2018-05-12T09:35:38.674Z,33.06
2018-05-12T09:36:38.510Z,30.99
2018-05-12T09:39:20.619Z,30.67
2018-05-12T09:42:02.578Z,32.00
2018-05-12T09:43:02.583Z,32.86
2018-05-12T09:44:02.458Z,32.40
2018-05-12T09:45:02.525Z,32.11
2018-05-12T09:46:02.322Z,32.79
2018-05-12T09:47:02.361Z,32.91
2018-05-12T09:48:02.182Z,33.81
2018-05-12T09:49:02.208Z,35.32
2018-05-12T09:50:02.124Z,36.85
2018-05-12T09:51:02.119Z,37.49
2018-05-12T09:52:02.106Z,38.07
2018-05-12T09:53:02.026Z,37.96
2018-05-12T09:54:01.936Z,38.85
2018-05-12T09:55:01.879Z,38.56
2018-05-12T09:56:01.655Z,39.11
2018-05-12T09:57:01.671Z,40.21
2018-05-12T09:58:01.535Z,37.82
2018-05-12T09:59:01.463Z,37.03
2018-05-12T10:00:01.413Z,37.65
2018-05-12T10:01:01.362Z,37.20
2018-05-12T10:02:01.259Z,35.29
2018-05-12T10:03:01.318Z,35.53
2018-05-12T10:04:01.129Z,36.30
2018-05-12T10:05:01.182Z,36.05
2018-05-12T10:06:01.025Z,35.50
2018-05-12T10:07:00.989Z,33.91
2018-05-12T10:08:00.864Z,33.49
2018-05-12T10:09:00.918Z,35.30
2018-05-12T10:10:00.753Z,36.36
2018-05-12T10:11:00.754Z,35.71
2018-05-12T10:12:00.715Z,34.66
2018-05-12T10:13:00.619Z,34.28
2018-05-12T10:14:00.450Z,35.51
2018-05-12T10:15:00.435Z,36.19
2018-05-12T10:16:00.358Z,34.56
2018-05-12T10:17:00.377Z,34.19
2018-05-12T10:18:00.179Z,34.03
2018-05-12T10:19:00.161Z,33.81
2018-05-12T10:20:00.050Z,33.81
2018-05-12T10:21:00.088Z,33.54
2018-05-12T10:21:59.903Z,33.06
2018-05-12T10:22:59.977Z,32.37
2018-05-12T10:23:59.793Z,32.02
2018-05-12T10:24:59.784Z,31.41
2018-05-12T10:25:59.656Z,31.24
2018-05-12T10:26:59.621Z,31.03
2018-05-12T10:27:59.500Z,32.45
2018-05-12T10:28:59.497Z,33.17
2018-05-12T10:29:59.384Z,32.50
2018-05-12T10:32:41.642Z,31.34
2018-05-12T10:33:41.610Z,32.10
2018-05-12T10:34:41.471Z,32.08
2018-05-12T10:35:41.512Z,31.82
2018-05-12T10:36:41.345Z,31.61
2018-05-12T10:39:06.101Z,34.82
2018-05-12T11:01:03.555Z,35.34
2018-05-12T11:02:03.348Z,34.68
2018-05-12T11:03:03.382Z,32.92
2018-05-12T11:04:03.214Z,33.23
2018-05-12T11:05:03.237Z,33.83
2018-05-12T11:06:03.097Z,31.99
2018-05-12T11:07:03.168Z,32.11
2018-05-12T11:08:03.017Z,31.74
2018-05-12T11:09:02.968Z,30.99
2018-05-12T11:10:02.825Z,32.43
2018-05-12T11:11:02.885Z,33.01
2018-05-12T11:12:02.702Z,33.93
2018-05-12T11:13:02.766Z,35.63
2018-05-12T11:14:02.575Z,35.80
2018-05-12T11:15:02.606Z,36.38
2018-05-12T11:16:02.534Z,35.94
2018-05-12T11:17:02.516Z,34.70
2018-05-12T11:18:02.334Z,34.35
2018-05-12T11:19:02.326Z,32.62
2018-05-12T11:20:02.182Z,32.79
2018-05-12T11:21:02.242Z,32.23
2018-05-12T11:22:02.058Z,31.46
2018-05-12T11:23:02.078Z,31.84
2018-05-12T11:24:01.937Z,32.76
2018-05-12T11:25:01.946Z,33.81
2018-05-12T11:26:01.792Z,35.27
2018-05-12T11:27:01.864Z,34.46
2018-05-12T11:28:01.680Z,34.67
2018-05-12T11:29:01.682Z,35.29
2018-05-12T11:30:01.536Z,35.27
2018-05-12T11:31:01.586Z,34.40
2018-05-12T11:32:01.473Z,34.98
2018-05-12T11:33:01.430Z,35.37
2018-05-12T11:34:01.271Z,35.43
2018-05-12T11:35:01.314Z,36.46
2018-05-12T11:36:01.136Z,37.35
2018-05-12T11:37:01.227Z,36.87
2018-05-12T11:38:01.025Z,36.77
2018-05-12T11:39:01.030Z,36.32
2018-05-12T11:40:00.935Z,36.44
2018-05-12T11:41:00.934Z,36.85
2018-05-12T11:42:00.739Z,34.70
2018-05-12T11:43:00.781Z,34.70
2018-05-12T11:44:00.605Z,35.45
2018-05-12T11:45:00.676Z,35.33
2018-05-12T11:46:00.478Z,35.45
2018-05-12T11:47:00.563Z,34.59
2018-05-12T11:48:00.335Z,35.37
2018-05-12T11:49:00.404Z,34.75
2018-05-12T11:50:00.232Z,35.45
2018-05-12T11:51:00.296Z,34.88
2018-05-12T11:52:00.088Z,35.29
2018-05-12T11:53:00.094Z,35.33
2018-05-12T11:53:59.969Z,34.08
2018-05-12T11:55:00.036Z,32.84
2018-05-12T11:55:59.803Z,34.67
2018-05-12T11:56:59.817Z,34.93
2018-05-12T11:57:59.671Z,36.18
2018-05-12T11:58:59.733Z,37.13
2018-05-12T11:59:59.550Z,36.93
2018-05-12T12:00:59.539Z,36.58
2018-05-12T12:01:59.384Z,36.46
2018-05-12T12:02:59.468Z,37.13
2018-05-12T12:03:59.319Z,37.05
2018-05-12T12:04:59.290Z,36.64
2018-05-12T12:05:59.115Z,36.83
2018-05-12T12:06:59.166Z,36.72
2018-05-12T12:07:58.971Z,37.81
2018-05-12T12:08:58.970Z,37.30
2018-05-12T12:09:58.844Z,37.77
2018-05-12T12:10:58.897Z,38.95
2018-05-12T12:11:58.692Z,37.88
2018-05-12T12:12:58.725Z,37.59
2018-05-12T12:13:58.548Z,37.98
2018-05-12T12:14:58.645Z,38.78
2018-05-12T12:15:58.437Z,38.58
2018-05-12T12:16:58.366Z,37.90
2018-05-12T12:17:58.286Z,37.49
2018-05-12T12:18:58.279Z,37.79
2018-05-12T12:19:58.185Z,38.68
2018-05-12T12:20:58.132Z,37.69
2018-05-12T12:21:57.980Z,37.51
2018-05-12T12:22:58.012Z,36.83
2018-05-12T12:23:57.838Z,37.30
2018-05-12T12:24:57.845Z,36.62
2018-05-12T12:25:57.720Z,37.01
2018-05-12T12:26:57.713Z,36.24
2018-05-12T12:27:57.572Z,36.52
2018-05-12T12:28:57.530Z,36.74
2018-05-12T12:29:57.453Z,35.85
2018-05-12T12:30:57.470Z,35.86
2018-05-12T12:31:57.255Z,35.57
2018-05-12T12:32:57.251Z,34.97
2018-05-12T12:33:57.112Z,35.25
2018-05-12T12:34:57.152Z,35.56
2018-05-12T12:35:56.979Z,35.35
2018-05-12T12:36:56.980Z,35.54
2018-05-12T12:37:56.826Z,34.97
2018-05-12T12:38:56.876Z,35.13
2018-05-12T12:39:56.680Z,35.80
2018-05-12T12:40:56.717Z,35.91
2018-05-12T12:41:56.544Z,35.50
2018-05-12T12:42:56.494Z,36.58
2018-05-12T12:43:56.378Z,36.41
2018-05-12T12:46:38.693Z,35.48
2018-05-12T12:49:20.660Z,34.14
2018-05-12T12:50:20.702Z,33.52
2018-05-12T12:51:20.537Z,34.30
2018-05-12T12:52:20.503Z,34.88
2018-05-12T12:53:20.356Z,35.56
2018-05-12T12:56:02.647Z,36.12
2018-05-12T12:57:02.668Z,36.98
2018-05-12T12:59:27.151Z,37.19
2018-05-12T13:00:27.156Z,37.30
2018-05-12T13:01:27.017Z,36.72
2018-05-12T13:02:27.025Z,37.32
2018-05-12T13:03:26.859Z,38.79
2018-05-12T13:04:26.838Z,37.16
2018-05-12T13:05:26.762Z,36.58
2018-05-12T13:06:26.750Z,35.78
2018-05-12T13:07:26.596Z,36.83
2018-05-12T13:08:26.557Z,36.52
2018-05-12T13:09:26.434Z,36.62
2018-05-12T13:10:26.464Z,36.14
2018-05-12T13:11:26.298Z,36.43
2018-05-12T13:12:26.313Z,36.12
2018-05-12T13:13:26.142Z,36.04
2018-05-12T13:14:26.179Z,36.14
2018-05-12T13:15:25.981Z,35.86
2018-05-12T13:16:25.993Z,35.46
2018-05-12T13:17:25.907Z,34.97
2018-05-12T13:18:25.852Z,34.49
2018-05-12T13:19:25.705Z,34.97
2018-05-12T13:20:25.729Z,34.97
2018-05-12T13:21:25.548Z,35.25
2018-05-12T13:22:25.519Z,34.28
2018-05-12T13:23:25.436Z,34.59
2018-05-12T13:24:25.438Z,35.05
2018-05-12T13:25:25.263Z,35.27
2018-05-12T13:26:25.248Z,34.88
2018-05-12T13:27:25.128Z,35.17
2018-05-12T13:28:26.123Z,35.38
2018-05-12T13:29:24.972Z,35.56
2018-05-12T13:30:24.964Z,34.97
2018-05-12T13:31:24.826Z,35.75
2018-05-12T13:32:24.915Z,36.14
2018-05-12T13:33:24.700Z,35.66
2018-05-12T13:34:24.672Z,35.36
2018-05-12T13:35:24.548Z,35.75
2018-05-12T13:36:24.483Z,35.75
2018-05-12T13:37:24.401Z,35.27
2018-05-12T13:38:24.524Z,35.36
2018-05-12T13:39:24.245Z,35.36
2018-05-12T13:40:24.216Z,36.24
2018-05-12T13:41:24.085Z,36.24
2018-05-12T13:42:24.120Z,35.67
2018-05-12T13:43:23.962Z,35.77
2018-05-12T13:44:23.961Z,35.36
2018-05-12T13:45:23.817Z,35.66
2018-05-12T13:48:05.688Z,36.62
2018-05-12T13:49:05.675Z,36.82
2018-05-12T13:50:05.538Z,37.48
2018-05-12T13:51:05.537Z,37.09
2018-05-12T13:52:05.381Z,37.21
2018-05-12T13:53:05.349Z,37.40
2018-05-12T13:54:05.282Z,37.61
2018-05-12T13:56:47.265Z,37.49
2018-05-12T13:57:47.169Z,38.66
2018-05-12T13:58:47.036Z,38.83
2018-05-12T13:59:47.108Z,38.73
2018-05-12T14:00:46.894Z,39.22
2018-05-12T14:01:46.868Z,39.01
2018-05-12T14:02:46.755Z,39.01
2018-05-12T14:03:46.788Z,39.22
2018-05-12T14:04:46.633Z,38.56
2018-05-12T14:05:46.589Z,37.67
2018-05-12T14:06:46.457Z,37.40
2018-05-12T14:07:46.400Z,37.61
2018-05-12T14:08:46.294Z,38.00
2018-05-12T14:09:47.370Z,37.90
2018-05-12T14:10:46.161Z,38.02
2018-05-12T14:11:46.131Z,37.73
2018-05-12T14:12:46.003Z,36.74
2018-05-12T14:15:28.205Z,37.81
2018-05-12T14:16:28.236Z,37.32
2018-05-12T14:17:28.055Z,37.11
2018-05-12T14:18:28.055Z,37.30
2018-05-12T14:19:27.888Z,37.30
2018-05-12T14:20:27.874Z,37.59
2018-05-12T14:21:27.754Z,38.07
2018-05-12T14:24:09.705Z,37.98
2018-05-12T14:25:09.699Z,37.90
2018-05-12T14:26:09.552Z,37.69
2018-05-12T14:27:09.569Z,38.37
2018-05-12T14:28:09.392Z,38.66
2018-05-12T14:29:09.388Z,38.56
2018-05-12T14:30:09.287Z,38.48
2018-05-12T14:31:09.306Z,37.81
2018-05-12T14:32:09.094Z,37.51
2018-05-12T14:33:09.107Z,37.23
2018-05-12T14:34:08.976Z,37.43
2018-05-12T14:36:51.256Z,38.02
2018-05-12T14:37:51.206Z,37.13
2018-05-12T14:38:51.063Z,37.41
2018-05-12T14:39:51.041Z,37.32
2018-05-12T14:40:50.919Z,35.57
2018-05-12T14:41:50.930Z,36.06
2018-05-12T14:42:50.767Z,36.24